sensor_id;sensor_type;location;lat;lon;timestamp;P1;durP1;ratioP1;P2;durP2;ratioP2
15629;SDS011;7914;50.842;0.166;2023-10-09T00:02:10;28.83;;;13.57;;
15629;SDS011;7914;50.842;0.166;2023-10-09T00:04:37;25.80;;;11.40;;
15629;SDS011;7914;50.842;0.166;2023-10-09T00:07:06;32.47;;;13.00;;
15629;SDS011;7914;50.842;0.166;2023-10-09T00:09:35;23.65;;;11.23;;
15629;SDS011;7914;50.842;0.166;2023-10-09T00:12:17;28.10;;;12.50;;
15629;SDS011;7914;50.842;0.166;2023-10-09T00:14:52;24.80;;;10.70;;
15629;SDS011;7914;50.842;0.166;2023-10-09T00:17:32;28.33;;;11.95;;
15629;SDS011;7914;50.842;0.166;2023-10-09T00:19:58;32.35;;;13.32;;
15629;SDS011;7914;50.842;0.166;2023-10-09T00:22:24;25.75;;;10.93;;
15629;SDS011;7914;50.842;0.166;2023-10-09T00:24:55;27.67;;;11.85;;
15629;SDS011;7914;50.842;0.166;2023-10-09T00:27:37;25.15;;;11.95;;
15629;SDS011;7914;50.842;0.166;2023-10-09T00:30:10;24.40;;;11.27;;
15629;SDS011;7914;50.842;0.166;2023-10-09T00:32:42;28.13;;;12.48;;
15629;SDS011;7914;50.842;0.166;2023-10-09T00:35:16;31.38;;;12.43;;
15629;SDS011;7914;50.842;0.166;2023-10-09T00:38:01;26.80;;;11.98;;
15629;SDS011;7914;50.842;0.166;2023-10-09T00:40:44;26.35;;;11.65;;
15629;SDS011;7914;50.842;0.166;2023-10-09T00:43:15;28.50;;;13.13;;
15629;SDS011;7914;50.842;0.166;2023-10-09T00:45:44;29.05;;;13.13;;
15629;SDS011;7914;50.842;0.166;2023-10-09T00:48:12;30.50;;;12.63;;
15629;SDS011;7914;50.842;0.166;2023-10-09T00:50:54;30.05;;;13.02;;
15629;SDS011;7914;50.842;0.166;2023-10-09T00:53:23;30.58;;;13.25;;
15629;SDS011;7914;50.842;0.166;2023-10-09T00:55:56;28.40;;;12.75;;
15629;SDS011;7914;50.842;0.166;2023-10-09T00:58:25;29.95;;;12.55;;
15629;SDS011;7914;50.842;0.166;2023-10-09T01:00:52;29.48;;;12.38;;
15629;SDS011;7914;50.842;0.166;2023-10-09T01:03:19;25.08;;;12.30;;
15629;SDS011;7914;50.842;0.166;2023-10-09T01:12:05;25.00;;;10.13;;
15629;SDS011;7914;50.842;0.166;2023-10-09T01:14:31;19.40;;;9.50;;
15629;SDS011;7914;50.842;0.166;2023-10-09T01:17:01;20.23;;;9.68;;
15629;SDS011;7914;50.842;0.166;2023-10-09T01:19:32;23.90;;;9.60;;
15629;SDS011;7914;50.842;0.166;2023-10-09T01:21:59;20.42;;;9.88;;
15629;SDS011;7914;50.842;0.166;2023-10-09T01:24:51;20.20;;;9.68;;
15629;SDS011;7914;50.842;0.166;2023-10-09T01:27:20;21.08;;;8.57;;
15629;SDS011;7914;50.842;0.166;2023-10-09T01:29:49;21.80;;;9.40;;
15629;SDS011;7914;50.842;0.166;2023-10-09T01:32:16;19.30;;;8.57;;
15629;SDS011;7914;50.842;0.166;2023-10-09T01:34:44;17.73;;;9.35;;
15629;SDS011;7914;50.842;0.166;2023-10-09T01:37:17;20.60;;;8.95;;
15629;SDS011;7914;50.842;0.166;2023-10-09T01:39:50;19.83;;;8.18;;
15629;SDS011;7914;50.842;0.166;2023-10-09T01:42:17;19.90;;;8.68;;
15629;SDS011;7914;50.842;0.166;2023-10-09T01:44:59;17.40;;;7.20;;
15629;SDS011;7914;50.842;0.166;2023-10-09T01:47:51;16.60;;;7.80;;
15629;SDS011;7914;50.842;0.166;2023-10-09T01:50:19;19.13;;;7.65;;
15629;SDS011;7914;50.842;0.166;2023-10-09T01:52:52;18.88;;;7.72;;
15629;SDS011;7914;50.842;0.166;2023-10-09T01:55:18;18.95;;;8.05;;
15629;SDS011;7914;50.842;0.166;2023-10-09T01:57:54;18.92;;;8.18;;
15629;SDS011;7914;50.842;0.166;2023-10-09T02:00:23;18.15;;;8.55;;
15629;SDS011;7914;50.842;0.166;2023-10-09T02:02:54;21.95;;;8.93;;
15629;SDS011;7914;50.842;0.166;2023-10-09T02:05:20;21.35;;;9.40;;
15629;SDS011;7914;50.842;0.166;2023-10-09T02:07:45;24.35;;;10.65;;
15629;SDS011;7914;50.842;0.166;2023-10-09T02:10:17;26.05;;;11.32;;
15629;SDS011;7914;50.842;0.166;2023-10-09T02:12:54;23.60;;;11.95;;
15629;SDS011;7914;50.842;0.166;2023-10-09T02:15:25;25.50;;;11.55;;
15629;SDS011;7914;50.842;0.166;2023-10-09T02:18:06;24.92;;;11.32;;
15629;SDS011;7914;50.842;0.166;2023-10-09T02:23:37;26.23;;;12.68;;
15629;SDS011;7914;50.842;0.166;2023-10-09T02:26:04;25.73;;;12.07;;
15629;SDS011;7914;50.842;0.166;2023-10-09T02:28:34;24.45;;;10.75;;
15629;SDS011;7914;50.842;0.166;2023-10-09T02:31:01;23.77;;;10.57;;
15629;SDS011;7914;50.842;0.166;2023-10-09T02:33:35;32.25;;;12.63;;
15629;SDS011;7914;50.842;0.166;2023-10-09T02:36:05;21.90;;;10.93;;
15629;SDS011;7914;50.842;0.166;2023-10-09T02:38:34;25.65;;;10.70;;
15629;SDS011;7914;50.842;0.166;2023-10-09T02:41:06;21.95;;;9.75;;
15629;SDS011;7914;50.842;0.166;2023-10-09T02:43:33;22.38;;;9.60;;
15629;SDS011;7914;50.842;0.166;2023-10-09T02:46:09;19.85;;;9.85;;
15629;SDS011;7914;50.842;0.166;2023-10-09T02:48:39;21.33;;;9.00;;
15629;SDS011;7914;50.842;0.166;2023-10-09T02:51:12;21.20;;;9.23;;
15629;SDS011;7914;50.842;0.166;2023-10-09T02:54:01;18.08;;;8.48;;
15629;SDS011;7914;50.842;0.166;2023-10-09T02:56:44;17.88;;;7.85;;
15629;SDS011;7914;50.842;0.166;2023-10-09T02:59:31;22.00;;;10.50;;
15629;SDS011;7914;50.842;0.166;2023-10-09T03:01:57;16.80;;;8.85;;
15629;SDS011;7914;50.842;0.166;2023-10-09T03:04:28;18.35;;;7.68;;
15629;SDS011;7914;50.842;0.166;2023-10-09T03:06:57;17.90;;;8.73;;
15629;SDS011;7914;50.842;0.166;2023-10-09T03:09:23;17.42;;;8.85;;
15629;SDS011;7914;50.842;0.166;2023-10-09T03:12:02;21.55;;;8.82;;
15629;SDS011;7914;50.842;0.166;2023-10-09T03:14:32;18.52;;;8.48;;
15629;SDS011;7914;50.842;0.166;2023-10-09T03:17:00;16.75;;;8.25;;
15629;SDS011;7914;50.842;0.166;2023-10-09T03:19:30;17.98;;;8.32;;
15629;SDS011;7914;50.842;0.166;2023-10-09T03:24:59;17.92;;;8.20;;
15629;SDS011;7914;50.842;0.166;2023-10-09T03:27:25;17.75;;;7.97;;
15629;SDS011;7914;50.842;0.166;2023-10-09T03:29:51;16.23;;;7.53;;
15629;SDS011;7914;50.842;0.166;2023-10-09T03:32:18;18.10;;;7.88;;
15629;SDS011;7914;50.842;0.166;2023-10-09T03:34:44;15.38;;;7.78;;
15629;SDS011;7914;50.842;0.166;2023-10-09T03:37:11;17.80;;;8.35;;
15629;SDS011;7914;50.842;0.166;2023-10-09T03:39:58;17.80;;;7.68;;
15629;SDS011;7914;50.842;0.166;2023-10-09T03:42:24;17.50;;;7.57;;
15629;SDS011;7914;50.842;0.166;2023-10-09T03:44:49;16.08;;;7.75;;
15629;SDS011;7914;50.842;0.166;2023-10-09T03:47:19;19.40;;;8.27;;
15629;SDS011;7914;50.842;0.166;2023-10-09T03:49:48;15.40;;;7.68;;
15629;SDS011;7914;50.842;0.166;2023-10-09T03:52:16;15.88;;;7.00;;
15629;SDS011;7914;50.842;0.166;2023-10-09T03:54:43;18.25;;;7.97;;
15629;SDS011;7914;50.842;0.166;2023-10-09T03:57:11;16.40;;;7.80;;
15629;SDS011;7914;50.842;0.166;2023-10-09T03:59:40;16.50;;;7.60;;
15629;SDS011;7914;50.842;0.166;2023-10-09T04:02:07;16.90;;;7.35;;
15629;SDS011;7914;50.842;0.166;2023-10-09T04:04:33;22.95;;;8.73;;
15629;SDS011;7914;50.842;0.166;2023-10-09T04:06:58;19.27;;;7.97;;
15629;SDS011;7914;50.842;0.166;2023-10-09T04:09:25;19.80;;;8.57;;
15629;SDS011;7914;50.842;0.166;2023-10-09T04:11:51;19.85;;;8.98;;
15629;SDS011;7914;50.842;0.166;2023-10-09T04:14:39;21.65;;;8.73;;
15629;SDS011;7914;50.842;0.166;2023-10-09T04:17:27;22.92;;;9.07;;
15629;SDS011;7914;50.842;0.166;2023-10-09T04:19:59;20.98;;;9.63;;
15629;SDS011;7914;50.842;0.166;2023-10-09T04:22:43;22.23;;;10.32;;
15629;SDS011;7914;50.842;0.166;2023-10-09T04:25:21;25.17;;;10.32;;
15629;SDS011;7914;50.842;0.166;2023-10-09T04:30:18;23.67;;;9.93;;
15629;SDS011;7914;50.842;0.166;2023-10-09T04:32:44;30.50;;;10.55;;
15629;SDS011;7914;50.842;0.166;2023-10-09T04:35:10;21.13;;;11.20;;
15629;SDS011;7914;50.842;0.166;2023-10-09T04:37:48;23.67;;;10.73;;
15629;SDS011;7914;50.842;0.166;2023-10-09T04:40:21;24.25;;;11.48;;
15629;SDS011;7914;50.842;0.166;2023-10-09T04:43:05;25.88;;;11.90;;
15629;SDS011;7914;50.842;0.166;2023-10-09T04:45:38;30.30;;;13.57;;
15629;SDS011;7914;50.842;0.166;2023-10-09T04:48:24;32.78;;;13.00;;
15629;SDS011;7914;50.842;0.166;2023-10-09T04:51:02;33.38;;;14.70;;
15629;SDS011;7914;50.842;0.166;2023-10-09T04:53:57;30.67;;;14.88;;
15629;SDS011;7914;50.842;0.166;2023-10-09T04:56:39;34.53;;;14.35;;
15629;SDS011;7914;50.842;0.166;2023-10-09T04:59:19;31.50;;;12.95;;
15629;SDS011;7914;50.842;0.166;2023-10-09T05:01:49;30.70;;;13.85;;
15629;SDS011;7914;50.842;0.166;2023-10-09T05:07:02;21.98;;;10.10;;
15629;SDS011;7914;50.842;0.166;2023-10-09T05:09:47;29.10;;;11.70;;
15629;SDS011;7914;50.842;0.166;2023-10-09T05:12:36;20.02;;;10.63;;
15629;SDS011;7914;50.842;0.166;2023-10-09T05:15:11;21.98;;;10.35;;
15629;SDS011;7914;50.842;0.166;2023-10-09T05:17:38;26.60;;;11.73;;
15629;SDS011;7914;50.842;0.166;2023-10-09T05:20:05;23.05;;;10.90;;
15629;SDS011;7914;50.842;0.166;2023-10-09T05:22:55;22.55;;;10.10;;
15629;SDS011;7914;50.842;0.166;2023-10-09T05:25:25;22.85;;;11.52;;
15629;SDS011;7914;50.842;0.166;2023-10-09T05:28:27;25.67;;;9.63;;
15629;SDS011;7914;50.842;0.166;2023-10-09T05:31:14;23.90;;;10.00;;
15629;SDS011;7914;50.842;0.166;2023-10-09T05:33:58;18.52;;;9.48;;
15629;SDS011;7914;50.842;0.166;2023-10-09T05:36:26;20.05;;;9.57;;
15629;SDS011;7914;50.842;0.166;2023-10-09T05:38:52;23.80;;;10.65;;
15629;SDS011;7914;50.842;0.166;2023-10-09T05:41:27;17.48;;;8.80;;
15629;SDS011;7914;50.842;0.166;2023-10-09T05:44:31;23.55;;;9.13;;
15629;SDS011;7914;50.842;0.166;2023-10-09T05:47:15;19.30;;;8.52;;
15629;SDS011;7914;50.842;0.166;2023-10-09T05:50:01;21.23;;;9.90;;
15629;SDS011;7914;50.842;0.166;2023-10-09T05:57:33;25.88;;;10.82;;
15629;SDS011;7914;50.842;0.166;2023-10-09T06:00:17;24.55;;;9.77;;
15629;SDS011;7914;50.842;0.166;2023-10-09T06:03:01;22.50;;;9.57;;
15629;SDS011;7914;50.842;0.166;2023-10-09T06:05:46;21.10;;;9.75;;
15629;SDS011;7914;50.842;0.166;2023-10-09T06:08:21;20.85;;;9.88;;
15629;SDS011;7914;50.842;0.166;2023-10-09T06:10:52;25.45;;;10.05;;
15629;SDS011;7914;50.842;0.166;2023-10-09T06:13:57;22.42;;;9.27;;
15629;SDS011;7914;50.842;0.166;2023-10-09T06:16:33;18.88;;;8.55;;
15629;SDS011;7914;50.842;0.166;2023-10-09T06:19:24;22.02;;;10.50;;
15629;SDS011;7914;50.842;0.166;2023-10-09T06:21:54;20.85;;;10.60;;
15629;SDS011;7914;50.842;0.166;2023-10-09T06:24:39;21.70;;;8.95;;
15629;SDS011;7914;50.842;0.166;2023-10-09T06:27:19;20.33;;;9.88;;
15629;SDS011;7914;50.842;0.166;2023-10-09T06:29:55;20.85;;;9.90;;
15629;SDS011;7914;50.842;0.166;2023-10-09T06:32:37;21.58;;;9.63;;
15629;SDS011;7914;50.842;0.166;2023-10-09T06:35:14;20.80;;;8.65;;
15629;SDS011;7914;50.842;0.166;2023-10-09T06:37:56;23.48;;;9.10;;
15629;SDS011;7914;50.842;0.166;2023-10-09T06:40:46;20.42;;;9.32;;
15629;SDS011;7914;50.842;0.166;2023-10-09T06:43:31;18.02;;;8.65;;
15629;SDS011;7914;50.842;0.166;2023-10-09T06:46:02;20.45;;;8.98;;
15629;SDS011;7914;50.842;0.166;2023-10-09T06:49:02;20.98;;;8.55;;
15629;SDS011;7914;50.842;0.166;2023-10-09T06:51:47;19.27;;;10.25;;
15629;SDS011;7914;50.842;0.166;2023-10-09T06:54:20;19.80;;;9.35;;
15629;SDS011;7914;50.842;0.166;2023-10-09T06:56:50;20.65;;;8.85;;
15629;SDS011;7914;50.842;0.166;2023-10-09T06:59:19;24.10;;;10.50;;
15629;SDS011;7914;50.842;0.166;2023-10-09T07:01:48;17.30;;;8.98;;
15629;SDS011;7914;50.842;0.166;2023-10-09T07:04:34;24.55;;;9.88;;
15629;SDS011;7914;50.842;0.166;2023-10-09T07:07:00;20.92;;;9.68;;
15629;SDS011;7914;50.842;0.166;2023-10-09T07:09:27;19.90;;;9.90;;
15629;SDS011;7914;50.842;0.166;2023-10-09T07:12:13;20.23;;;10.02;;
15629;SDS011;7914;50.842;0.166;2023-10-09T07:14:45;17.67;;;8.20;;
15629;SDS011;7914;50.842;0.166;2023-10-09T07:17:11;21.00;;;10.43;;
15629;SDS011;7914;50.842;0.166;2023-10-09T07:19:55;18.10;;;9.40;;
15629;SDS011;7914;50.842;0.166;2023-10-09T07:22:34;23.35;;;11.25;;
15629;SDS011;7914;50.842;0.166;2023-10-09T07:25:04;21.63;;;10.50;;
15629;SDS011;7914;50.842;0.166;2023-10-09T07:27:42;23.05;;;10.63;;
15629;SDS011;7914;50.842;0.166;2023-10-09T07:30:17;23.65;;;11.70;;
15629;SDS011;7914;50.842;0.166;2023-10-09T07:35:33;22.75;;;11.07;;
15629;SDS011;7914;50.842;0.166;2023-10-09T07:38:26;23.65;;;11.05;;
15629;SDS011;7914;50.842;0.166;2023-10-09T07:41:00;21.38;;;10.38;;
15629;SDS011;7914;50.842;0.166;2023-10-09T07:43:35;19.45;;;9.95;;
15629;SDS011;7914;50.842;0.166;2023-10-09T07:46:16;23.30;;;11.05;;
15629;SDS011;7914;50.842;0.166;2023-10-09T07:49:06;23.85;;;10.13;;
15629;SDS011;7914;50.842;0.166;2023-10-09T07:51:38;21.55;;;9.45;;
15629;SDS011;7914;50.842;0.166;2023-10-09T07:54:08;18.83;;;8.52;;
15629;SDS011;7914;50.842;0.166;2023-10-09T07:56:39;21.85;;;9.77;;
15629;SDS011;7914;50.842;0.166;2023-10-09T07:59:09;23.23;;;10.35;;
15629;SDS011;7914;50.842;0.166;2023-10-09T08:01:57;22.55;;;11.98;;
15629;SDS011;7914;50.842;0.166;2023-10-09T08:04:27;24.65;;;11.60;;
15629;SDS011;7914;50.842;0.166;2023-10-09T08:07:25;22.85;;;11.63;;
15629;SDS011;7914;50.842;0.166;2023-10-09T08:09:57;23.80;;;11.05;;
15629;SDS011;7914;50.842;0.166;2023-10-09T08:12:42;33.05;;;15.75;;
15629;SDS011;7914;50.842;0.166;2023-10-09T08:15:15;26.30;;;12.38;;
15629;SDS011;7914;50.842;0.166;2023-10-09T08:17:44;42.22;;;20.58;;
15629;SDS011;7914;50.842;0.166;2023-10-09T08:20:21;42.15;;;20.88;;
15629;SDS011;7914;50.842;0.166;2023-10-09T08:23:15;23.10;;;11.43;;
15629;SDS011;7914;50.842;0.166;2023-10-09T08:26:13;20.25;;;10.10;;
15629;SDS011;7914;50.842;0.166;2023-10-09T08:28:40;28.60;;;11.82;;
15629;SDS011;7914;50.842;0.166;2023-10-09T08:31:11;21.25;;;12.25;;
15629;SDS011;7914;50.842;0.166;2023-10-09T08:34:07;21.02;;;11.20;;
15629;SDS011;7914;50.842;0.166;2023-10-09T08:36:34;23.75;;;11.88;;
15629;SDS011;7914;50.842;0.166;2023-10-09T08:39:03;22.85;;;11.30;;
15629;SDS011;7914;50.842;0.166;2023-10-09T08:41:53;23.60;;;11.80;;
15629;SDS011;7914;50.842;0.166;2023-10-09T08:44:23;27.77;;;13.90;;
15629;SDS011;7914;50.842;0.166;2023-10-09T08:46:56;22.40;;;12.38;;
15629;SDS011;7914;50.842;0.166;2023-10-09T08:49:23;23.88;;;13.40;;
15629;SDS011;7914;50.842;0.166;2023-10-09T08:51:50;22.65;;;13.27;;
15629;SDS011;7914;50.842;0.166;2023-10-09T08:54:18;26.13;;;13.77;;
15629;SDS011;7914;50.842;0.166;2023-10-09T08:56:47;24.20;;;13.27;;
15629;SDS011;7914;50.842;0.166;2023-10-09T08:59:16;23.67;;;11.75;;
15629;SDS011;7914;50.842;0.166;2023-10-09T09:01:47;19.83;;;10.15;;
15629;SDS011;7914;50.842;0.166;2023-10-09T09:07:24;18.40;;;8.93;;
15629;SDS011;7914;50.842;0.166;2023-10-09T09:09:54;18.95;;;9.02;;
15629;SDS011;7914;50.842;0.166;2023-10-09T09:12:29;21.38;;;9.25;;
15629;SDS011;7914;50.842;0.166;2023-10-09T09:15:03;18.08;;;9.30;;
15629;SDS011;7914;50.842;0.166;2023-10-09T09:17:33;20.15;;;9.43;;
15629;SDS011;7914;50.842;0.166;2023-10-09T09:20:00;18.23;;;7.78;;
15629;SDS011;7914;50.842;0.166;2023-10-09T09:22:51;19.00;;;8.70;;
15629;SDS011;7914;50.842;0.166;2023-10-09T09:25:21;18.23;;;8.40;;
15629;SDS011;7914;50.842;0.166;2023-10-09T09:27:49;17.98;;;8.45;;
15629;SDS011;7914;50.842;0.166;2023-10-09T09:30:28;19.25;;;8.18;;
15629;SDS011;7914;50.842;0.166;2023-10-09T09:32:58;16.90;;;8.40;;
15629;SDS011;7914;50.842;0.166;2023-10-09T09:36:01;18.73;;;8.27;;
15629;SDS011;7914;50.842;0.166;2023-10-09T09:38:29;17.17;;;7.65;;
15629;SDS011;7914;50.842;0.166;2023-10-09T09:41:14;15.85;;;7.57;;
15629;SDS011;7914;50.842;0.166;2023-10-09T09:43:56;14.90;;;7.10;;
15629;SDS011;7914;50.842;0.166;2023-10-09T09:46:34;13.23;;;6.38;;
15629;SDS011;7914;50.842;0.166;2023-10-09T09:49:00;12.77;;;6.13;;
15629;SDS011;7914;50.842;0.166;2023-10-09T09:51:31;16.88;;;7.55;;
15629;SDS011;7914;50.842;0.166;2023-10-09T09:53:57;13.52;;;6.68;;
15629;SDS011;7914;50.842;0.166;2023-10-09T09:56:24;15.73;;;6.93;;
15629;SDS011;7914;50.842;0.166;2023-10-09T09:58:51;14.23;;;6.88;;
15629;SDS011;7914;50.842;0.166;2023-10-09T10:01:21;14.68;;;6.85;;
15629;SDS011;7914;50.842;0.166;2023-10-09T10:03:56;12.75;;;5.45;;
15629;SDS011;7914;50.842;0.166;2023-10-09T10:06:29;13.63;;;5.55;;
15629;SDS011;7914;50.842;0.166;2023-10-09T10:08:57;12.35;;;5.20;;
15629;SDS011;7914;50.842;0.166;2023-10-09T10:11:42;11.02;;;5.10;;
15629;SDS011;7914;50.842;0.166;2023-10-09T10:14:10;13.55;;;6.03;;
15629;SDS011;7914;50.842;0.166;2023-10-09T10:23:14;11.80;;;4.80;;
15629;SDS011;7914;50.842;0.166;2023-10-09T10:25:50;12.15;;;5.80;;
15629;SDS011;7914;50.842;0.166;2023-10-09T10:28:26;12.60;;;5.88;;
15629;SDS011;7914;50.842;0.166;2023-10-09T10:31:03;9.63;;;4.85;;
15629;SDS011;7914;50.842;0.166;2023-10-09T10:36:23;10.70;;;3.88;;
15629;SDS011;7914;50.842;0.166;2023-10-09T10:39:01;11.80;;;5.03;;
15629;SDS011;7914;50.842;0.166;2023-10-09T10:41:34;13.43;;;4.35;;
15629;SDS011;7914;50.842;0.166;2023-10-09T10:44:29;13.25;;;5.15;;
15629;SDS011;7914;50.842;0.166;2023-10-09T10:46:59;13.73;;;5.70;;
15629;SDS011;7914;50.842;0.166;2023-10-09T10:49:26;10.95;;;4.50;;
15629;SDS011;7914;50.842;0.166;2023-10-09T10:52:01;9.25;;;3.95;;
15629;SDS011;7914;50.842;0.166;2023-10-09T10:54:40;8.60;;;3.20;;
15629;SDS011;7914;50.842;0.166;2023-10-09T10:59:57;10.05;;;3.63;;
15629;SDS011;7914;50.842;0.166;2023-10-09T11:02:37;9.88;;;3.20;;
15629;SDS011;7914;50.842;0.166;2023-10-09T11:05:06;8.55;;;3.53;;
15629;SDS011;7914;50.842;0.166;2023-10-09T11:07:51;9.60;;;2.97;;
15629;SDS011;7914;50.842;0.166;2023-10-09T11:10:22;7.95;;;2.75;;
15629;SDS011;7914;50.842;0.166;2023-10-09T11:12:56;8.80;;;3.03;;
15629;SDS011;7914;50.842;0.166;2023-10-09T11:15:35;7.03;;;2.78;;
15629;SDS011;7914;50.842;0.166;2023-10-09T11:18:12;6.72;;;2.78;;
15629;SDS011;7914;50.842;0.166;2023-10-09T11:20:48;10.00;;;2.83;;
15629;SDS011;7914;50.842;0.166;2023-10-09T11:23:30;7.25;;;2.60;;
15629;SDS011;7914;50.842;0.166;2023-10-09T11:26:00;7.90;;;2.70;;
15629;SDS011;7914;50.842;0.166;2023-10-09T11:28:46;8.30;;;2.75;;
15629;SDS011;7914;50.842;0.166;2023-10-09T11:31:38;8.75;;;3.35;;
15629;SDS011;7914;50.842;0.166;2023-10-09T11:34:20;8.35;;;3.28;;
15629;SDS011;7914;50.842;0.166;2023-10-09T11:37:12;9.90;;;3.65;;
15629;SDS011;7914;50.842;0.166;2023-10-09T11:39:56;6.25;;;2.97;;
15629;SDS011;7914;50.842;0.166;2023-10-09T11:42:23;12.13;;;3.28;;
15629;SDS011;7914;50.842;0.166;2023-10-09T11:45:19;8.57;;;2.92;;
15629;SDS011;7914;50.842;0.166;2023-10-09T11:48:23;6.95;;;2.40;;
15629;SDS011;7914;50.842;0.166;2023-10-09T11:51:12;6.65;;;2.50;;
15629;SDS011;7914;50.842;0.166;2023-10-09T11:53:44;10.13;;;3.28;;
15629;SDS011;7914;50.842;0.166;2023-10-09T11:56:22;11.60;;;3.47;;
15629;SDS011;7914;50.842;0.166;2023-10-09T11:58:52;6.63;;;3.00;;
15629;SDS011;7914;50.842;0.166;2023-10-09T12:01:18;10.88;;;3.72;;
15629;SDS011;7914;50.842;0.166;2023-10-09T12:03:49;15.57;;;3.95;;
15629;SDS011;7914;50.842;0.166;2023-10-09T12:06:19;7.47;;;2.78;;
15629;SDS011;7914;50.842;0.166;2023-10-09T12:08:47;9.85;;;3.00;;
15629;SDS011;7914;50.842;0.166;2023-10-09T12:11:14;8.35;;;3.08;;
15629;SDS011;7914;50.842;0.166;2023-10-09T12:13:47;8.52;;;3.38;;
15629;SDS011;7914;50.842;0.166;2023-10-09T12:16:14;7.45;;;2.70;;
15629;SDS011;7914;50.842;0.166;2023-10-09T12:18:40;7.03;;;2.60;;
15629;SDS011;7914;50.842;0.166;2023-10-09T12:21:07;9.93;;;2.55;;
15629;SDS011;7914;50.842;0.166;2023-10-09T12:23:40;7.70;;;2.80;;
15629;SDS011;7914;50.842;0.166;2023-10-09T12:28:39;9.15;;;2.67;;
15629;SDS011;7914;50.842;0.166;2023-10-09T12:31:05;8.55;;;3.63;;
15629;SDS011;7914;50.842;0.166;2023-10-09T12:33:31;12.52;;;4.90;;
15629;SDS011;7914;50.842;0.166;2023-10-09T12:35:57;8.73;;;2.72;;
15629;SDS011;7914;50.842;0.166;2023-10-09T12:38:26;8.38;;;3.00;;
15629;SDS011;7914;50.842;0.166;2023-10-09T12:41:05;6.97;;;2.83;;
15629;SDS011;7914;50.842;0.166;2023-10-09T12:43:50;9.55;;;3.00;;
15629;SDS011;7914;50.842;0.166;2023-10-09T12:46:17;9.30;;;3.05;;
15629;SDS011;7914;50.842;0.166;2023-10-09T12:48:48;7.85;;;2.70;;
15629;SDS011;7914;50.842;0.166;2023-10-09T12:51:14;7.45;;;3.55;;
15629;SDS011;7914;50.842;0.166;2023-10-09T12:53:43;9.68;;;3.22;;
15629;SDS011;7914;50.842;0.166;2023-10-09T12:56:10;7.45;;;3.08;;
15629;SDS011;7914;50.842;0.166;2023-10-09T12:58:37;10.45;;;3.90;;
15629;SDS011;7914;50.842;0.166;2023-10-09T13:01:04;10.13;;;3.58;;
15629;SDS011;7914;50.842;0.166;2023-10-09T13:03:36;8.07;;;3.47;;
15629;SDS011;7914;50.842;0.166;2023-10-09T13:06:03;11.13;;;3.60;;
15629;SDS011;7914;50.842;0.166;2023-10-09T13:08:35;9.32;;;3.08;;
15629;SDS011;7914;50.842;0.166;2023-10-09T13:11:05;8.45;;;3.40;;
15629;SDS011;7914;50.842;0.166;2023-10-09T13:13:42;8.40;;;3.55;;
15629;SDS011;7914;50.842;0.166;2023-10-09T13:16:18;9.40;;;3.00;;
15629;SDS011;7914;50.842;0.166;2023-10-09T13:18:55;9.00;;;3.13;;
15629;SDS011;7914;50.842;0.166;2023-10-09T13:21:26;9.10;;;3.28;;
15629;SDS011;7914;50.842;0.166;2023-10-09T13:23:57;10.45;;;3.22;;
15629;SDS011;7914;50.842;0.166;2023-10-09T13:26:23;8.90;;;3.28;;
15629;SDS011;7914;50.842;0.166;2023-10-09T13:28:51;7.80;;;3.47;;
15629;SDS011;7914;50.842;0.166;2023-10-09T13:31:18;9.88;;;3.75;;
15629;SDS011;7914;50.842;0.166;2023-10-09T13:33:46;11.73;;;4.35;;
15629;SDS011;7914;50.842;0.166;2023-10-09T13:36:13;10.10;;;3.72;;
15629;SDS011;7914;50.842;0.166;2023-10-09T13:38:47;10.20;;;3.92;;
15629;SDS011;7914;50.842;0.166;2023-10-09T13:41:13;10.10;;;3.10;;
15629;SDS011;7914;50.842;0.166;2023-10-09T13:43:40;11.70;;;4.20;;
15629;SDS011;7914;50.842;0.166;2023-10-09T13:46:08;7.90;;;3.47;;
15629;SDS011;7914;50.842;0.166;2023-10-09T13:48:35;11.65;;;4.00;;
15629;SDS011;7914;50.842;0.166;2023-10-09T13:51:12;10.00;;;3.50;;
15629;SDS011;7914;50.842;0.166;2023-10-09T13:53:48;11.30;;;3.88;;
15629;SDS011;7914;50.842;0.166;2023-10-09T13:56:15;10.68;;;3.90;;
15629;SDS011;7914;50.842;0.166;2023-10-09T13:58:51;10.05;;;3.72;;
15629;SDS011;7914;50.842;0.166;2023-10-09T14:01:19;9.93;;;3.97;;
15629;SDS011;7914;50.842;0.166;2023-10-09T14:03:56;10.63;;;3.83;;
15629;SDS011;7914;50.842;0.166;2023-10-09T14:06:26;11.75;;;4.57;;
15629;SDS011;7914;50.842;0.166;2023-10-09T14:09:00;11.85;;;4.15;;
15629;SDS011;7914;50.842;0.166;2023-10-09T14:11:29;10.68;;;4.10;;
15629;SDS011;7914;50.842;0.166;2023-10-09T14:14:03;10.98;;;4.00;;
15629;SDS011;7914;50.842;0.166;2023-10-09T14:16:34;9.65;;;3.80;;
15629;SDS011;7914;50.842;0.166;2023-10-09T14:19:00;11.40;;;4.72;;
15629;SDS011;7914;50.842;0.166;2023-10-09T14:21:32;15.20;;;5.50;;
15629;SDS011;7914;50.842;0.166;2023-10-09T14:24:07;15.95;;;5.63;;
15629;SDS011;7914;50.842;0.166;2023-10-09T14:26:44;9.52;;;4.85;;
15629;SDS011;7914;50.842;0.166;2023-10-09T14:29:10;11.07;;;4.38;;
15629;SDS011;7914;50.842;0.166;2023-10-09T14:31:41;10.38;;;4.13;;
15629;SDS011;7914;50.842;0.166;2023-10-09T14:34:14;9.50;;;3.35;;
15629;SDS011;7914;50.842;0.166;2023-10-09T14:36:40;9.23;;;3.60;;
15629;SDS011;7914;50.842;0.166;2023-10-09T14:39:09;10.10;;;3.60;;
15629;SDS011;7914;50.842;0.166;2023-10-09T14:41:38;9.40;;;3.75;;
15629;SDS011;7914;50.842;0.166;2023-10-09T14:44:05;9.65;;;3.67;;
15629;SDS011;7914;50.842;0.166;2023-10-09T14:46:31;8.52;;;3.78;;
15629;SDS011;7914;50.842;0.166;2023-10-09T14:51:25;10.57;;;3.42;;
15629;SDS011;7914;50.842;0.166;2023-10-09T14:53:58;10.40;;;3.83;;
15629;SDS011;7914;50.842;0.166;2023-10-09T14:56:27;8.63;;;4.10;;
15629;SDS011;7914;50.842;0.166;2023-10-09T14:58:56;10.00;;;3.70;;
15629;SDS011;7914;50.842;0.166;2023-10-09T15:01:26;15.25;;;7.05;;
15629;SDS011;7914;50.842;0.166;2023-10-09T15:03:59;17.05;;;8.23;;
15629;SDS011;7914;50.842;0.166;2023-10-09T15:06:28;16.75;;;6.32;;
15629;SDS011;7914;50.842;0.166;2023-10-09T15:08:58;17.02;;;6.45;;
15629;SDS011;7914;50.842;0.166;2023-10-09T15:11:34;14.98;;;6.32;;
15629;SDS011;7914;50.842;0.166;2023-10-09T15:14:04;13.73;;;4.95;;
15629;SDS011;7914;50.842;0.166;2023-10-09T15:16:31;10.02;;;4.35;;
15629;SDS011;7914;50.842;0.166;2023-10-09T15:18:56;13.15;;;4.43;;
15629;SDS011;7914;50.842;0.166;2023-10-09T15:21:23;10.40;;;3.75;;
15629;SDS011;7914;50.842;0.166;2023-10-09T15:23:55;10.68;;;3.47;;
15629;SDS011;7914;50.842;0.166;2023-10-09T15:26:21;8.13;;;3.60;;
15629;SDS011;7914;50.842;0.166;2023-10-09T15:28:49;9.63;;;3.83;;
15629;SDS011;7914;50.842;0.166;2023-10-09T15:31:16;8.50;;;3.67;;
15629;SDS011;7914;50.842;0.166;2023-10-09T15:33:42;9.48;;;3.80;;
15629;SDS011;7914;50.842;0.166;2023-10-09T15:36:12;12.45;;;4.40;;
15629;SDS011;7914;50.842;0.166;2023-10-09T15:38:46;8.05;;;3.72;;
15629;SDS011;7914;50.842;0.166;2023-10-09T15:41:13;9.85;;;4.32;;
15629;SDS011;7914;50.842;0.166;2023-10-09T15:43:41;10.93;;;4.85;;
15629;SDS011;7914;50.842;0.166;2023-10-09T15:46:13;12.43;;;4.55;;
15629;SDS011;7914;50.842;0.166;2023-10-09T15:48:42;10.35;;;4.05;;
15629;SDS011;7914;50.842;0.166;2023-10-09T15:51:12;12.10;;;6.07;;
15629;SDS011;7914;50.842;0.166;2023-10-09T15:53:41;10.40;;;4.85;;
15629;SDS011;7914;50.842;0.166;2023-10-09T15:56:08;12.70;;;3.95;;
15629;SDS011;7914;50.842;0.166;2023-10-09T15:58:37;10.90;;;3.95;;
15629;SDS011;7914;50.842;0.166;2023-10-09T16:01:08;9.32;;;3.92;;
15629;SDS011;7914;50.842;0.166;2023-10-09T16:03:40;9.85;;;4.32;;
15629;SDS011;7914;50.842;0.166;2023-10-09T16:06:07;12.63;;;3.97;;
15629;SDS011;7914;50.842;0.166;2023-10-09T16:08:40;12.23;;;4.15;;
15629;SDS011;7914;50.842;0.166;2023-10-09T16:11:10;9.57;;;3.78;;